Ikke nødvendig med spesiell oppmerksomhet.   -   Ingen advarsler for øyeblikket

METAR Rapporter

 

ENZV - Stavanger
Oppdatert: 21/06/2018 22:50
delvis skyet
delvis skyet
 Vind fra NNV
Vind: NNV 30 km/h
Temperatur: 11°C
Duggpunkt: 7°C
Fuktighet: 77%
Barometer: 1012 hPa
Skyet: delvis skyet
Sikt: 10 km
2018/06/21 20:50 ENZV 212050Z 33016KT 9999 FEW020 SCT040 11/07 Q1012
ENBR - Bergen
Oppdatert: 21/06/2018 22:50
delvis skyet
delvis skyet
 Vind fra NNV
Vind: NNV 19 km/h
Temperatur: 10°C
Vindkjøling: 7°C
Duggpunkt: 6°C
Fuktighet: 76%
Barometer: 1013 hPa
Skyet: delvis skyet
Sikt: 10 km
2018/06/21 20:50 ENBR 212050Z 34010KT 9999 FEW020 SCT023 10/06 Q1013 RMK WIND 1200FT 34025KT
 
ENHD - Haugesund
Oppdatert: 21/06/2018 22:50
delvis skyet
delvis skyet
 Vind fra NNV
Vind: NNV 33 km/h
Temperatur: 11°C
Duggpunkt: 7°C
Fuktighet: 77%
Barometer: 1012 hPa
Skyet: delvis skyet
Sikt: 10 km
2018/06/21 20:50 ENHD 212050Z 33018KT 9999 FEW019 SCT043 11/07 Q1012
ENCN - Kristiansand
Oppdatert: 21/06/2018 22:50
klart
klart
 Vind fra NV
Vind: NV 13 km/h
Temperatur: 13°C
Duggpunkt: 4°C
Fuktighet: 55%
Barometer: 1007 hPa
Oversikt: klart
Sikt: greater than 10 km
2018/06/21 20:50 ENCN 212050Z 32007KT 280V360 CAVOK 13/04 Q1007
 
ENBO - Bodø
Oppdatert: 21/06/2018 22:50
Light rain, mostly cloudy
Light rain, mostly cloudy
 Vind fra SV
Vind: SV 15 km/h
Temperatur: 8°C
Vindkjøling: 5°C
Duggpunkt: 8°C
Fuktighet: 100%
Barometer: 1006 hPa
Oversikt: lett regn
Skyet: hovedsaklig skyet
Sikt: 10 km
2018/06/21 20:50 ENBO 212050Z 22008KT 9999 -RA FEW005 SCT010 BKN025 08/08 Q1006 TEMPO 4000 RADZ SCT004 BKN008
ENKR - Kirkenes
Oppdatert: 21/06/2018 22:50
Light rain, mostly cloudy
Light rain, mostly cloudy
 Vind fra N
Vind: N 6 km/h
Temperatur: 6°C
Duggpunkt: 6°C
Fuktighet: 100%
Barometer: 1003 hPa
Oversikt: lett regn
Skyet: hovedsaklig skyet
Sikt: 10 km
2018/06/21 20:50 ENKR 212050Z 01003KT 9999 -RA FEW003 SCT007 BKN039 06/06 Q1003 RMK WIND 731FT 02007KT
 
ENVA - Trondheim
Oppdatert: 21/06/2018 22:50
hovedsaklig skyet
hovedsaklig skyet
 Vind fra NV
Vind: NV 26 km/h
Temperatur: 10°C
Vindkjøling: 7°C
Duggpunkt: 6°C
Fuktighet: 76%
Barometer: 1010 hPa
Skyet: hovedsaklig skyet
Sikt: 10 km
2018/06/21 20:50 ENVA 212050Z 31014KT 9999 BKN030 BKN044 10/06 Q1010 RMK WIND 670FT 32022KT
ENGM - Oslo
Oppdatert: 21/06/2018 22:50
klart
klart
 Vind fra NV
Vind: NV 6 km/h
Temperatur: 9°C
Duggpunkt: 7°C
Fuktighet: 87%
Barometer: 1004 hPa
Oversikt: klart
Sikt: greater than 10 km
2018/06/21 20:50 ENGM 212050Z 31003KT 270V340 CAVOK 09/07 Q1004 NOSIG